sensor_id;sensor_type;location;lat;lon;timestamp;P1;durP1;ratioP1;P2;durP2;ratioP2
20069;SDS011;10195;50.868;4.382;2022-12-18T00:01:33;53.90;;;24.93;;
20069;SDS011;10195;50.868;4.382;2022-12-18T00:04:00;52.70;;;25.40;;
20069;SDS011;10195;50.868;4.382;2022-12-18T00:06:28;53.30;;;24.13;;
20069;SDS011;10195;50.868;4.382;2022-12-18T00:08:55;58.40;;;24.33;;
20069;SDS011;10195;50.868;4.382;2022-12-18T00:11:23;52.67;;;25.23;;
20069;SDS011;10195;50.868;4.382;2022-12-18T00:13:51;59.00;;;24.67;;
20069;SDS011;10195;50.868;4.382;2022-12-18T00:16:19;55.50;;;26.10;;
20069;SDS011;10195;50.868;4.382;2022-12-18T00:18:47;57.30;;;26.23;;
20069;SDS011;10195;50.868;4.382;2022-12-18T00:21:17;53.77;;;25.03;;
20069;SDS011;10195;50.868;4.382;2022-12-18T00:23:44;53.20;;;25.03;;
20069;SDS011;10195;50.868;4.382;2022-12-18T00:26:12;63.10;;;25.03;;
20069;SDS011;10195;50.868;4.382;2022-12-18T00:28:40;52.27;;;25.33;;
20069;SDS011;10195;50.868;4.382;2022-12-18T00:31:07;53.50;;;24.60;;
20069;SDS011;10195;50.868;4.382;2022-12-18T00:33:35;58.07;;;25.03;;
20069;SDS011;10195;50.868;4.382;2022-12-18T00:36:04;59.70;;;24.93;;
20069;SDS011;10195;50.868;4.382;2022-12-18T00:38:42;52.87;;;23.47;;
20069;SDS011;10195;50.868;4.382;2022-12-18T00:41:08;57.63;;;24.77;;
20069;SDS011;10195;50.868;4.382;2022-12-18T00:43:35;50.17;;;23.17;;
20069;SDS011;10195;50.868;4.382;2022-12-18T00:46:01;46.83;;;22.83;;
20069;SDS011;10195;50.868;4.382;2022-12-18T00:48:27;51.70;;;21.97;;
20069;SDS011;10195;50.868;4.382;2022-12-18T00:50:52;50.20;;;23.27;;
20069;SDS011;10195;50.868;4.382;2022-12-18T00:53:18;52.23;;;23.07;;
20069;SDS011;10195;50.868;4.382;2022-12-18T00:55:44;49.40;;;21.63;;
20069;SDS011;10195;50.868;4.382;2022-12-18T00:58:10;55.67;;;22.47;;
20069;SDS011;10195;50.868;4.382;2022-12-18T01:00:37;50.07;;;22.70;;
20069;SDS011;10195;50.868;4.382;2022-12-18T01:03:03;48.63;;;22.97;;
20069;SDS011;10195;50.868;4.382;2022-12-18T01:05:29;51.27;;;22.77;;
20069;SDS011;10195;50.868;4.382;2022-12-18T01:07:54;48.70;;;22.30;;
20069;SDS011;10195;50.868;4.382;2022-12-18T01:10:21;45.40;;;21.67;;
20069;SDS011;10195;50.868;4.382;2022-12-18T01:12:47;50.03;;;21.67;;
20069;SDS011;10195;50.868;4.382;2022-12-18T01:15:13;49.77;;;22.17;;
20069;SDS011;10195;50.868;4.382;2022-12-18T01:17:40;48.50;;;20.90;;
20069;SDS011;10195;50.868;4.382;2022-12-18T01:20:06;46.63;;;20.30;;
20069;SDS011;10195;50.868;4.382;2022-12-18T01:22:33;46.10;;;20.70;;
20069;SDS011;10195;50.868;4.382;2022-12-18T01:24:59;47.03;;;19.57;;
20069;SDS011;10195;50.868;4.382;2022-12-18T01:27:25;43.43;;;19.97;;
20069;SDS011;10195;50.868;4.382;2022-12-18T01:29:51;49.03;;;21.43;;
20069;SDS011;10195;50.868;4.382;2022-12-18T01:32:16;45.73;;;19.97;;
20069;SDS011;10195;50.868;4.382;2022-12-18T01:34:42;50.63;;;20.60;;
20069;SDS011;10195;50.868;4.382;2022-12-18T01:37:08;46.43;;;21.57;;
20069;SDS011;10195;50.868;4.382;2022-12-18T01:39:34;48.00;;;20.40;;
20069;SDS011;10195;50.868;4.382;2022-12-18T01:42:00;45.17;;;21.07;;
20069;SDS011;10195;50.868;4.382;2022-12-18T01:49:56;43.03;;;20.73;;
20069;SDS011;10195;50.868;4.382;2022-12-18T01:52:24;45.47;;;19.87;;
20069;SDS011;10195;50.868;4.382;2022-12-18T01:54:53;48.23;;;20.97;;
20069;SDS011;10195;50.868;4.382;2022-12-18T01:57:19;48.93;;;20.17;;
20069;SDS011;10195;50.868;4.382;2022-12-18T01:59:46;44.97;;;21.30;;
20069;SDS011;10195;50.868;4.382;2022-12-18T02:02:17;41.63;;;19.00;;
20069;SDS011;10195;50.868;4.382;2022-12-18T02:04:44;53.63;;;22.57;;
20069;SDS011;10195;50.868;4.382;2022-12-18T02:10:00;46.83;;;19.43;;
20069;SDS011;10195;50.868;4.382;2022-12-18T02:12:36;48.57;;;20.40;;
20069;SDS011;10195;50.868;4.382;2022-12-18T02:18:07;42.33;;;19.73;;
20069;SDS011;10195;50.868;4.382;2022-12-18T02:26:06;39.37;;;17.13;;
20069;SDS011;10195;50.868;4.382;2022-12-18T02:28:43;43.07;;;17.47;;
20069;SDS011;10195;50.868;4.382;2022-12-18T02:31:22;37.23;;;16.53;;
20069;SDS011;10195;50.868;4.382;2022-12-18T02:33:51;40.90;;;17.50;;
20069;SDS011;10195;50.868;4.382;2022-12-18T02:36:23;34.83;;;16.80;;
20069;SDS011;10195;50.868;4.382;2022-12-18T02:38:51;33.73;;;16.87;;
20069;SDS011;10195;50.868;4.382;2022-12-18T02:41:18;34.63;;;17.77;;
20069;SDS011;10195;50.868;4.382;2022-12-18T02:43:48;36.40;;;16.93;;
20069;SDS011;10195;50.868;4.382;2022-12-18T02:46:37;40.10;;;17.67;;
20069;SDS011;10195;50.868;4.382;2022-12-18T02:49:14;35.77;;;15.90;;
20069;SDS011;10195;50.868;4.382;2022-12-18T02:51:55;36.03;;;16.93;;
20069;SDS011;10195;50.868;4.382;2022-12-18T02:54:56;30.77;;;15.53;;
20069;SDS011;10195;50.868;4.382;2022-12-18T03:00:14;34.83;;;15.73;;
20069;SDS011;10195;50.868;4.382;2022-12-18T03:02:56;34.13;;;16.27;;
20069;SDS011;10195;50.868;4.382;2022-12-18T03:05:53;39.60;;;17.50;;
20069;SDS011;10195;50.868;4.382;2022-12-18T03:08:31;36.17;;;15.50;;
20069;SDS011;10195;50.868;4.382;2022-12-18T03:11:04;29.33;;;14.73;;
20069;SDS011;10195;50.868;4.382;2022-12-18T03:13:33;28.37;;;14.80;;
20069;SDS011;10195;50.868;4.382;2022-12-18T03:16:00;32.37;;;14.50;;
20069;SDS011;10195;50.868;4.382;2022-12-18T03:18:30;30.60;;;14.33;;
20069;SDS011;10195;50.868;4.382;2022-12-18T03:21:01;32.77;;;14.30;;
20069;SDS011;10195;50.868;4.382;2022-12-18T03:23:32;34.07;;;14.87;;
20069;SDS011;10195;50.868;4.382;2022-12-18T03:26:04;29.00;;;14.10;;
20069;SDS011;10195;50.868;4.382;2022-12-18T03:28:33;29.70;;;13.97;;
20069;SDS011;10195;50.868;4.382;2022-12-18T03:31:04;33.60;;;15.20;;
20069;SDS011;10195;50.868;4.382;2022-12-18T03:33:44;29.07;;;13.77;;
20069;SDS011;10195;50.868;4.382;2022-12-18T03:36:15;28.40;;;13.43;;
20069;SDS011;10195;50.868;4.382;2022-12-18T03:38:41;27.57;;;12.37;;
20069;SDS011;10195;50.868;4.382;2022-12-18T03:52:08;27.00;;;12.80;;
20069;SDS011;10195;50.868;4.382;2022-12-18T03:54:36;23.07;;;12.17;;
20069;SDS011;10195;50.868;4.382;2022-12-18T03:57:13;24.90;;;12.60;;
20069;SDS011;10195;50.868;4.382;2022-12-18T03:59:45;28.33;;;13.77;;
20069;SDS011;10195;50.868;4.382;2022-12-18T04:02:12;27.30;;;13.27;;
20069;SDS011;10195;50.868;4.382;2022-12-18T04:04:41;27.43;;;11.63;;
20069;SDS011;10195;50.868;4.382;2022-12-18T04:07:09;23.67;;;12.93;;
20069;SDS011;10195;50.868;4.382;2022-12-18T04:09:35;27.53;;;12.57;;
20069;SDS011;10195;50.868;4.382;2022-12-18T04:12:03;29.50;;;12.00;;
20069;SDS011;10195;50.868;4.382;2022-12-18T04:14:28;26.37;;;12.13;;
20069;SDS011;10195;50.868;4.382;2022-12-18T04:16:54;22.80;;;11.47;;
20069;SDS011;10195;50.868;4.382;2022-12-18T04:19:20;26.53;;;12.33;;
20069;SDS011;10195;50.868;4.382;2022-12-18T04:21:45;31.50;;;13.93;;
20069;SDS011;10195;50.868;4.382;2022-12-18T04:24:11;23.30;;;11.17;;
20069;SDS011;10195;50.868;4.382;2022-12-18T04:26:36;27.90;;;13.07;;
20069;SDS011;10195;50.868;4.382;2022-12-18T04:29:03;31.10;;;13.70;;
20069;SDS011;10195;50.868;4.382;2022-12-18T04:31:28;27.07;;;12.07;;
20069;SDS011;10195;50.868;4.382;2022-12-18T04:33:54;32.10;;;14.57;;
20069;SDS011;10195;50.868;4.382;2022-12-18T04:36:20;32.63;;;14.37;;
20069;SDS011;10195;50.868;4.382;2022-12-18T04:38:46;29.53;;;12.63;;
20069;SDS011;10195;50.868;4.382;2022-12-18T04:41:11;24.57;;;13.00;;
20069;SDS011;10195;50.868;4.382;2022-12-18T04:43:37;28.63;;;12.90;;
20069;SDS011;10195;50.868;4.382;2022-12-18T04:46:03;26.27;;;11.90;;
20069;SDS011;10195;50.868;4.382;2022-12-18T04:48:32;28.83;;;13.23;;
20069;SDS011;10195;50.868;4.382;2022-12-18T04:50:59;26.93;;;12.47;;
20069;SDS011;10195;50.868;4.382;2022-12-18T04:53:24;29.33;;;12.93;;
20069;SDS011;10195;50.868;4.382;2022-12-18T04:55:50;30.53;;;13.23;;
20069;SDS011;10195;50.868;4.382;2022-12-18T04:58:16;30.43;;;14.33;;
20069;SDS011;10195;50.868;4.382;2022-12-18T05:00:41;35.13;;;13.63;;
20069;SDS011;10195;50.868;4.382;2022-12-18T05:03:07;27.47;;;13.53;;
20069;SDS011;10195;50.868;4.382;2022-12-18T05:05:34;35.03;;;12.77;;
20069;SDS011;10195;50.868;4.382;2022-12-18T05:08:00;30.83;;;13.50;;
20069;SDS011;10195;50.868;4.382;2022-12-18T05:10:26;33.10;;;14.40;;
20069;SDS011;10195;50.868;4.382;2022-12-18T05:12:51;33.77;;;14.20;;
20069;SDS011;10195;50.868;4.382;2022-12-18T05:15:23;31.53;;;13.70;;
20069;SDS011;10195;50.868;4.382;2022-12-18T05:17:51;26.23;;;12.70;;
20069;SDS011;10195;50.868;4.382;2022-12-18T05:20:17;29.07;;;13.30;;
20069;SDS011;10195;50.868;4.382;2022-12-18T05:22:43;37.63;;;14.87;;
20069;SDS011;10195;50.868;4.382;2022-12-18T05:25:09;27.93;;;11.50;;
20069;SDS011;10195;50.868;4.382;2022-12-18T05:27:34;32.87;;;12.27;;
20069;SDS011;10195;50.868;4.382;2022-12-18T05:30:00;30.77;;;11.67;;
20069;SDS011;10195;50.868;4.382;2022-12-18T05:32:26;35.20;;;12.23;;
20069;SDS011;10195;50.868;4.382;2022-12-18T05:34:51;28.80;;;12.00;;
20069;SDS011;10195;50.868;4.382;2022-12-18T05:37:17;26.03;;;10.50;;
20069;SDS011;10195;50.868;4.382;2022-12-18T05:39:43;28.53;;;11.20;;
20069;SDS011;10195;50.868;4.382;2022-12-18T05:42:09;22.87;;;10.80;;
20069;SDS011;10195;50.868;4.382;2022-12-18T05:44:35;21.27;;;9.93;;
20069;SDS011;10195;50.868;4.382;2022-12-18T05:47:00;26.90;;;10.63;;
20069;SDS011;10195;50.868;4.382;2022-12-18T05:49:26;29.20;;;10.50;;
20069;SDS011;10195;50.868;4.382;2022-12-18T05:51:51;20.80;;;11.07;;
20069;SDS011;10195;50.868;4.382;2022-12-18T05:54:17;26.37;;;11.00;;
20069;SDS011;10195;50.868;4.382;2022-12-18T05:56:43;24.73;;;11.83;;
20069;SDS011;10195;50.868;4.382;2022-12-18T05:59:08;33.73;;;14.23;;
20069;SDS011;10195;50.868;4.382;2022-12-18T06:01:34;25.53;;;12.83;;
20069;SDS011;10195;50.868;4.382;2022-12-18T06:04:00;24.00;;;10.97;;
20069;SDS011;10195;50.868;4.382;2022-12-18T06:06:26;25.87;;;12.37;;
20069;SDS011;10195;50.868;4.382;2022-12-18T06:08:53;29.13;;;12.17;;
20069;SDS011;10195;50.868;4.382;2022-12-18T06:11:21;27.13;;;12.30;;
20069;SDS011;10195;50.868;4.382;2022-12-18T06:13:49;32.30;;;11.50;;
20069;SDS011;10195;50.868;4.382;2022-12-18T06:16:17;27.33;;;12.53;;
20069;SDS011;10195;50.868;4.382;2022-12-18T06:18:42;31.03;;;12.90;;
20069;SDS011;10195;50.868;4.382;2022-12-18T06:21:08;35.93;;;12.97;;
20069;SDS011;10195;50.868;4.382;2022-12-18T06:23:34;29.00;;;13.37;;
20069;SDS011;10195;50.868;4.382;2022-12-18T06:26:03;29.63;;;11.80;;
20069;SDS011;10195;50.868;4.382;2022-12-18T06:28:32;26.63;;;12.60;;
20069;SDS011;10195;50.868;4.382;2022-12-18T06:30:58;24.07;;;12.17;;
20069;SDS011;10195;50.868;4.382;2022-12-18T06:33:25;28.83;;;12.47;;
20069;SDS011;10195;50.868;4.382;2022-12-18T06:35:52;27.67;;;11.67;;
20069;SDS011;10195;50.868;4.382;2022-12-18T06:38:17;26.10;;;11.60;;
20069;SDS011;10195;50.868;4.382;2022-12-18T06:40:43;30.07;;;10.83;;
20069;SDS011;10195;50.868;4.382;2022-12-18T06:43:08;26.57;;;10.67;;
20069;SDS011;10195;50.868;4.382;2022-12-18T06:45:34;23.63;;;10.63;;
20069;SDS011;10195;50.868;4.382;2022-12-18T06:48:00;23.40;;;11.00;;
20069;SDS011;10195;50.868;4.382;2022-12-18T06:50:25;26.00;;;10.60;;
20069;SDS011;10195;50.868;4.382;2022-12-18T06:52:51;26.53;;;11.93;;
20069;SDS011;10195;50.868;4.382;2022-12-18T06:55:17;24.17;;;11.47;;
20069;SDS011;10195;50.868;4.382;2022-12-18T06:57:43;23.97;;;11.03;;
20069;SDS011;10195;50.868;4.382;2022-12-18T07:00:08;22.73;;;10.90;;
20069;SDS011;10195;50.868;4.382;2022-12-18T07:02:35;20.80;;;10.77;;
20069;SDS011;10195;50.868;4.382;2022-12-18T07:05:01;25.30;;;11.20;;
20069;SDS011;10195;50.868;4.382;2022-12-18T07:07:27;23.43;;;11.30;;
20069;SDS011;10195;50.868;4.382;2022-12-18T07:09:52;21.57;;;10.27;;
20069;SDS011;10195;50.868;4.382;2022-12-18T07:12:18;18.83;;;9.70;;
20069;SDS011;10195;50.868;4.382;2022-12-18T07:14:44;21.57;;;11.03;;
20069;SDS011;10195;50.868;4.382;2022-12-18T07:17:10;28.03;;;10.43;;
20069;SDS011;10195;50.868;4.382;2022-12-18T07:19:35;20.60;;;10.60;;
20069;SDS011;10195;50.868;4.382;2022-12-18T07:22:01;27.27;;;13.23;;
20069;SDS011;10195;50.868;4.382;2022-12-18T07:24:27;22.23;;;11.20;;
20069;SDS011;10195;50.868;4.382;2022-12-18T07:26:53;24.87;;;11.07;;
20069;SDS011;10195;50.868;4.382;2022-12-18T07:29:18;20.90;;;10.97;;
20069;SDS011;10195;50.868;4.382;2022-12-18T07:31:44;21.00;;;10.83;;
20069;SDS011;10195;50.868;4.382;2022-12-18T07:34:11;26.13;;;10.83;;
20069;SDS011;10195;50.868;4.382;2022-12-18T07:36:37;22.60;;;9.60;;
20069;SDS011;10195;50.868;4.382;2022-12-18T07:39:03;23.97;;;10.23;;
20069;SDS011;10195;50.868;4.382;2022-12-18T07:41:28;24.87;;;10.00;;
20069;SDS011;10195;50.868;4.382;2022-12-18T07:43:57;22.17;;;10.73;;
20069;SDS011;10195;50.868;4.382;2022-12-18T07:46:23;22.93;;;9.97;;
20069;SDS011;10195;50.868;4.382;2022-12-18T07:48:51;20.67;;;9.90;;
20069;SDS011;10195;50.868;4.382;2022-12-18T07:51:17;21.63;;;9.93;;
20069;SDS011;10195;50.868;4.382;2022-12-18T07:53:49;20.60;;;9.90;;
20069;SDS011;10195;50.868;4.382;2022-12-18T07:56:14;26.10;;;11.50;;
20069;SDS011;10195;50.868;4.382;2022-12-18T07:58:40;25.83;;;10.63;;
20069;SDS011;10195;50.868;4.382;2022-12-18T08:01:09;29.27;;;12.07;;
20069;SDS011;10195;50.868;4.382;2022-12-18T08:03:36;21.77;;;11.43;;
20069;SDS011;10195;50.868;4.382;2022-12-18T08:06:04;27.53;;;11.80;;
20069;SDS011;10195;50.868;4.382;2022-12-18T08:08:31;26.73;;;12.17;;
20069;SDS011;10195;50.868;4.382;2022-12-18T08:10:58;39.27;;;16.23;;
20069;SDS011;10195;50.868;4.382;2022-12-18T08:13:24;24.90;;;11.40;;
20069;SDS011;10195;50.868;4.382;2022-12-18T08:15:59;24.20;;;11.10;;
20069;SDS011;10195;50.868;4.382;2022-12-18T08:18:27;27.27;;;10.30;;
20069;SDS011;10195;50.868;4.382;2022-12-18T08:20:53;26.60;;;11.33;;
20069;SDS011;10195;50.868;4.382;2022-12-18T08:23:19;25.73;;;9.20;;
20069;SDS011;10195;50.868;4.382;2022-12-18T08:25:45;18.93;;;9.80;;
20069;SDS011;10195;50.868;4.382;2022-12-18T08:28:11;16.70;;;8.57;;
20069;SDS011;10195;50.868;4.382;2022-12-18T08:30:36;19.93;;;8.10;;
20069;SDS011;10195;50.868;4.382;2022-12-18T08:33:02;11.13;;;5.47;;
20069;SDS011;10195;50.868;4.382;2022-12-18T08:35:28;19.60;;;6.10;;
20069;SDS011;10195;50.868;4.382;2022-12-18T08:37:53;10.50;;;6.03;;
20069;SDS011;10195;50.868;4.382;2022-12-18T08:40:19;11.57;;;6.07;;
20069;SDS011;10195;50.868;4.382;2022-12-18T08:42:44;11.57;;;6.23;;
20069;SDS011;10195;50.868;4.382;2022-12-18T08:45:29;11.27;;;5.93;;
20069;SDS011;10195;50.868;4.382;2022-12-18T08:47:54;10.83;;;4.67;;
20069;SDS011;10195;50.868;4.382;2022-12-18T08:50:20;11.60;;;6.27;;
20069;SDS011;10195;50.868;4.382;2022-12-18T08:52:51;10.33;;;5.63;;
20069;SDS011;10195;50.868;4.382;2022-12-18T08:55:16;12.20;;;6.10;;
20069;SDS011;10195;50.868;4.382;2022-12-18T08:57:42;12.83;;;6.33;;
20069;SDS011;10195;50.868;4.382;2022-12-18T09:00:08;9.83;;;5.90;;
20069;SDS011;10195;50.868;4.382;2022-12-18T09:02:34;12.83;;;6.10;;
20069;SDS011;10195;50.868;4.382;2022-12-18T09:04:59;13.73;;;6.47;;
20069;SDS011;10195;50.868;4.382;2022-12-18T09:07:25;15.40;;;6.70;;
20069;SDS011;10195;50.868;4.382;2022-12-18T09:09:51;12.77;;;6.57;;
20069;SDS011;10195;50.868;4.382;2022-12-18T09:12:16;13.70;;;6.73;;
20069;SDS011;10195;50.868;4.382;2022-12-18T09:14:42;17.80;;;6.87;;
20069;SDS011;10195;50.868;4.382;2022-12-18T09:17:08;10.33;;;6.57;;
20069;SDS011;10195;50.868;4.382;2022-12-18T09:19:34;15.27;;;7.07;;
20069;SDS011;10195;50.868;4.382;2022-12-18T09:22:00;13.97;;;6.83;;
20069;SDS011;10195;50.868;4.382;2022-12-18T09:24:25;11.27;;;6.70;;
20069;SDS011;10195;50.868;4.382;2022-12-18T09:26:54;13.40;;;6.83;;
20069;SDS011;10195;50.868;4.382;2022-12-18T09:29:20;12.93;;;7.07;;
20069;SDS011;10195;50.868;4.382;2022-12-18T09:31:45;11.20;;;6.73;;
20069;SDS011;10195;50.868;4.382;2022-12-18T09:34:11;12.30;;;6.63;;
20069;SDS011;10195;50.868;4.382;2022-12-18T09:36:37;13.07;;;7.37;;
20069;SDS011;10195;50.868;4.382;2022-12-18T09:39:03;12.27;;;7.10;;
20069;SDS011;10195;50.868;4.382;2022-12-18T09:41:50;11.80;;;6.83;;
20069;SDS011;10195;50.868;4.382;2022-12-18T09:49:58;15.27;;;7.87;;
20069;SDS011;10195;50.868;4.382;2022-12-18T09:52:35;14.00;;;7.93;;
20069;SDS011;10195;50.868;4.382;2022-12-18T09:55:06;11.53;;;6.10;;
20069;SDS011;10195;50.868;4.382;2022-12-18T09:57:57;14.00;;;8.20;;
20069;SDS011;10195;50.868;4.382;2022-12-18T10:00:30;13.40;;;7.90;;
20069;SDS011;10195;50.868;4.382;2022-12-18T10:03:00;20.67;;;9.00;;
20069;SDS011;10195;50.868;4.382;2022-12-18T10:05:36;16.23;;;7.67;;
20069;SDS011;10195;50.868;4.382;2022-12-18T10:08:14;15.50;;;8.20;;
20069;SDS011;10195;50.868;4.382;2022-12-18T10:13:52;13.97;;;8.40;;
20069;SDS011;10195;50.868;4.382;2022-12-18T10:22:11;16.37;;;9.07;;
20069;SDS011;10195;50.868;4.382;2022-12-18T10:25:34;18.33;;;9.37;;
20069;SDS011;10195;50.868;4.382;2022-12-18T10:27:46;18.87;;;8.40;;
20069;SDS011;10195;50.868;4.382;2022-12-18T10:30:15;17.63;;;9.50;;
20069;SDS011;10195;50.868;4.382;2022-12-18T10:32:46;20.10;;;9.80;;
20069;SDS011;10195;50.868;4.382;2022-12-18T10:35:15;20.80;;;10.43;;
20069;SDS011;10195;50.868;4.382;2022-12-18T10:38:00;23.30;;;11.27;;
20069;SDS011;10195;50.868;4.382;2022-12-18T10:40:57;21.93;;;9.87;;
20069;SDS011;10195;50.868;4.382;2022-12-18T10:43:30;16.10;;;9.37;;
20069;SDS011;10195;50.868;4.382;2022-12-18T10:46:01;16.83;;;9.33;;
20069;SDS011;10195;50.868;4.382;2022-12-18T10:48:31;16.93;;;9.20;;
20069;SDS011;10195;50.868;4.382;2022-12-18T10:50:58;20.07;;;9.83;;
20069;SDS011;10195;50.868;4.382;2022-12-18T10:53:28;17.03;;;10.00;;
20069;SDS011;10195;50.868;4.382;2022-12-18T10:55:57;20.00;;;10.20;;
20069;SDS011;10195;50.868;4.382;2022-12-18T10:58:28;15.97;;;9.37;;
20069;SDS011;10195;50.868;4.382;2022-12-18T11:01:02;16.03;;;9.80;;
20069;SDS011;10195;50.868;4.382;2022-12-18T11:03:32;16.93;;;9.97;;
20069;SDS011;10195;50.868;4.382;2022-12-18T11:06:11;18.03;;;10.37;;
20069;SDS011;10195;50.868;4.382;2022-12-18T11:08:42;16.97;;;9.73;;
20069;SDS011;10195;50.868;4.382;2022-12-18T11:11:19;18.77;;;10.73;;
20069;SDS011;10195;50.868;4.382;2022-12-18T11:13:53;19.40;;;11.20;;
20069;SDS011;10195;50.868;4.382;2022-12-18T11:16:23;17.60;;;11.10;;
20069;SDS011;10195;50.868;4.382;2022-12-18T11:18:50;19.13;;;10.53;;
20069;SDS011;10195;50.868;4.382;2022-12-18T11:21:15;17.90;;;10.27;;
20069;SDS011;10195;50.868;4.382;2022-12-18T11:23:51;19.00;;;10.30;;
20069;SDS011;10195;50.868;4.382;2022-12-18T11:26:18;16.57;;;9.90;;
20069;SDS011;10195;50.868;4.382;2022-12-18T11:28:46;18.97;;;10.23;;
20069;SDS011;10195;50.868;4.382;2022-12-18T11:36:38;16.70;;;9.93;;
20069;SDS011;10195;50.868;4.382;2022-12-18T11:39:29;21.73;;;11.07;;
20069;SDS011;10195;50.868;4.382;2022-12-18T11:44:42;19.27;;;10.43;;
20069;SDS011;10195;50.868;4.382;2022-12-18T11:47:39;21.07;;;11.20;;
20069;SDS011;10195;50.868;4.382;2022-12-18T11:50:12;19.13;;;11.23;;
20069;SDS011;10195;50.868;4.382;2022-12-18T11:52:55;21.83;;;10.17;;
20069;SDS011;10195;50.868;4.382;2022-12-18T11:55:29;21.37;;;10.33;;
20069;SDS011;10195;50.868;4.382;2022-12-18T12:00:30;16.17;;;9.27;;
20069;SDS011;10195;50.868;4.382;2022-12-18T12:03:16;16.77;;;9.90;;
20069;SDS011;10195;50.868;4.382;2022-12-18T12:14:17;17.90;;;9.60;;
20069;SDS011;10195;50.868;4.382;2022-12-18T12:16:56;21.47;;;11.07;;
20069;SDS011;10195;50.868;4.382;2022-12-18T12:25:41;17.67;;;10.23;;
20069;SDS011;10195;50.868;4.382;2022-12-18T12:31:30;20.83;;;10.77;;
20069;SDS011;10195;50.868;4.382;2022-12-18T12:34:21;21.80;;;10.40;;
20069;SDS011;10195;50.868;4.382;2022-12-18T12:37:01;21.77;;;10.47;;
20069;SDS011;10195;50.868;4.382;2022-12-18T12:39:55;21.73;;;11.37;;
20069;SDS011;10195;50.868;4.382;2022-12-18T12:45:28;23.43;;;10.50;;
20069;SDS011;10195;50.868;4.382;2022-12-18T12:48:01;19.17;;;10.90;;
20069;SDS011;10195;50.868;4.382;2022-12-18T12:50:29;23.90;;;9.97;;
20069;SDS011;10195;50.868;4.382;2022-12-18T12:52:59;19.03;;;10.90;;
20069;SDS011;10195;50.868;4.382;2022-12-18T12:55:30;21.87;;;11.53;;
20069;SDS011;10195;50.868;4.382;2022-12-18T12:58:02;23.43;;;12.10;;
20069;SDS011;10195;50.868;4.382;2022-12-18T13:00:44;45.93;;;11.90;;
20069;SDS011;10195;50.868;4.382;2022-12-18T13:04:02;25.00;;;11.53;;
20069;SDS011;10195;50.868;4.382;2022-12-18T13:06:26;25.03;;;12.37;;
20069;SDS011;10195;50.868;4.382;2022-12-18T13:08:58;24.47;;;12.63;;
20069;SDS011;10195;50.868;4.382;2022-12-18T13:11:29;23.67;;;12.63;;
20069;SDS011;10195;50.868;4.382;2022-12-18T13:14:43;26.03;;;12.57;;
20069;SDS011;10195;50.868;4.382;2022-12-18T13:17:16;25.73;;;11.67;;
20069;SDS011;10195;50.868;4.382;2022-12-18T13:19:48;27.43;;;12.67;;
20069;SDS011;10195;50.868;4.382;2022-12-18T13:22:39;23.57;;;12.73;;
20069;SDS011;10195;50.868;4.382;2022-12-18T13:28:10;26.33;;;14.07;;
20069;SDS011;10195;50.868;4.382;2022-12-18T13:38:32;30.53;;;13.13;;
20069;SDS011;10195;50.868;4.382;2022-12-18T13:40:59;24.40;;;12.77;;
20069;SDS011;10195;50.868;4.382;2022-12-18T13:43:31;30.63;;;13.70;;
20069;SDS011;10195;50.868;4.382;2022-12-18T13:46:02;26.17;;;13.00;;
20069;SDS011;10195;50.868;4.382;2022-12-18T13:51:39;26.70;;;13.10;;
20069;SDS011;10195;50.868;4.382;2022-12-18T13:57:00;26.30;;;14.80;;
20069;SDS011;10195;50.868;4.382;2022-12-18T13:59:39;25.40;;;13.70;;
20069;SDS011;10195;50.868;4.382;2022-12-18T14:02:19;32.13;;;15.63;;
20069;SDS011;10195;50.868;4.382;2022-12-18T14:04:48;28.93;;;14.77;;
20069;SDS011;10195;50.868;4.382;2022-12-18T14:07:19;28.17;;;14.47;;
20069;SDS011;10195;50.868;4.382;2022-12-18T14:09:54;23.57;;;11.47;;
20069;SDS011;10195;50.868;4.382;2022-12-18T14:12:23;29.13;;;14.50;;
20069;SDS011;10195;50.868;4.382;2022-12-18T14:15:19;25.43;;;12.73;;
20069;SDS011;10195;50.868;4.382;2022-12-18T14:17:49;30.10;;;15.60;;
20069;SDS011;10195;50.868;4.382;2022-12-18T14:20:16;32.93;;;15.57;;
20069;SDS011;10195;50.868;4.382;2022-12-18T14:22:43;33.43;;;15.53;;
20069;SDS011;10195;50.868;4.382;2022-12-18T14:25:24;33.03;;;16.07;;
20069;SDS011;10195;50.868;4.382;2022-12-18T14:30:35;30.73;;;14.73;;
20069;SDS011;10195;50.868;4.382;2022-12-18T14:33:17;31.17;;;15.70;;
20069;SDS011;10195;50.868;4.382;2022-12-18T14:35:55;30.30;;;16.03;;
20069;SDS011;10195;50.868;4.382;2022-12-18T14:38:24;33.13;;;17.47;;
20069;SDS011;10195;50.868;4.382;2022-12-18T14:41:11;32.47;;;16.47;;
20069;SDS011;10195;50.868;4.382;2022-12-18T14:43:38;32.63;;;16.17;;
20069;SDS011;10195;50.868;4.382;2022-12-18T14:46:24;32.10;;;16.30;;
20069;SDS011;10195;50.868;4.382;2022-12-18T14:48:57;31.20;;;15.27;;
20069;SDS011;10195;50.868;4.382;2022-12-18T14:51:25;32.07;;;15.03;;
20069;SDS011;10195;50.868;4.382;2022-12-18T14:53:53;22.90;;;10.37;;
20069;SDS011;10195;50.868;4.382;2022-12-18T14:56:31;33.00;;;15.90;;
20069;SDS011;10195;50.868;4.382;2022-12-18T14:59:00;33.67;;;14.83;;
20069;SDS011;10195;50.868;4.382;2022-12-18T15:01:27;34.17;;;16.57;;
20069;SDS011;10195;50.868;4.382;2022-12-18T15:03:54;29.83;;;15.30;;
20069;SDS011;10195;50.868;4.382;2022-12-18T15:06:26;28.93;;;14.20;;
20069;SDS011;10195;50.868;4.382;2022-12-18T15:08:54;30.77;;;14.83;;
20069;SDS011;10195;50.868;4.382;2022-12-18T15:11:25;34.97;;;15.73;;
20069;SDS011;10195;50.868;4.382;2022-12-18T15:13:51;33.77;;;16.93;;
20069;SDS011;10195;50.868;4.382;2022-12-18T15:16:17;32.67;;;14.10;;
20069;SDS011;10195;50.868;4.382;2022-12-18T15:18:42;29.60;;;16.07;;
20069;SDS011;10195;50.868;4.382;2022-12-18T15:21:10;27.60;;;12.73;;
20069;SDS011;10195;50.868;4.382;2022-12-18T15:26:10;30.17;;;15.00;;
20069;SDS011;10195;50.868;4.382;2022-12-18T15:28:46;34.77;;;15.60;;
20069;SDS011;10195;50.868;4.382;2022-12-18T15:33:39;34.67;;;17.13;;
20069;SDS011;10195;50.868;4.382;2022-12-18T15:36:25;38.90;;;15.87;;
20069;SDS011;10195;50.868;4.382;2022-12-18T15:38:51;32.00;;;15.83;;
20069;SDS011;10195;50.868;4.382;2022-12-18T15:41:20;32.40;;;16.27;;
20069;SDS011;10195;50.868;4.382;2022-12-18T15:43:47;40.23;;;15.20;;
20069;SDS011;10195;50.868;4.382;2022-12-18T15:48:42;29.83;;;15.67;;
20069;SDS011;10195;50.868;4.382;2022-12-18T15:51:14;31.83;;;15.47;;
20069;SDS011;10195;50.868;4.382;2022-12-18T15:53:45;31.77;;;15.27;;
20069;SDS011;10195;50.868;4.382;2022-12-18T15:56:12;36.43;;;14.47;;
20069;SDS011;10195;50.868;4.382;2022-12-18T15:58:58;32.47;;;14.83;;
20069;SDS011;10195;50.868;4.382;2022-12-18T16:01:25;29.47;;;13.10;;
20069;SDS011;10195;50.868;4.382;2022-12-18T16:03:53;33.83;;;14.80;;
20069;SDS011;10195;50.868;4.382;2022-12-18T16:06:19;32.70;;;15.30;;
20069;SDS011;10195;50.868;4.382;2022-12-18T16:08:45;34.57;;;15.10;;
20069;SDS011;10195;50.868;4.382;2022-12-18T16:11:20;33.07;;;15.93;;
20069;SDS011;10195;50.868;4.382;2022-12-18T16:16:46;33.13;;;15.37;;
20069;SDS011;10195;50.868;4.382;2022-12-18T16:19:14;33.20;;;15.30;;
20069;SDS011;10195;50.868;4.382;2022-12-18T16:21:41;32.10;;;15.93;;
20069;SDS011;10195;50.868;4.382;2022-12-18T16:24:11;29.80;;;15.77;;
20069;SDS011;10195;50.868;4.382;2022-12-18T16:26:41;31.70;;;14.60;;